Tahoma, California
Current Conditions -  °F | °C
As of 1:53 AM on Sunday 26 Oct 2014 (Local Time) from KTVL Reporting Station
Clear Clear  
Wind Chill: 34°   Ceiling: Unl
Heat Index: 41°   Visibility: 10mi
Dew Point: 26°   Wind: 13mph
Humidity: 55%   Direction: 170°S
Pressure: 30.14"   Gusts: NA
Location:  39.05°N, 120.13°W
Report Text: KTVL 260853Z AUTO 17011KT 10SM CLR 05/M03 A3014 RMK AO2 SLP185 T00501033 53001
Loading
Personal Weather Stations






























Interactive Weather Map
Tropical Storm Tracking
New forecast layout! Learn more

10-Day Weather Forecast

Advertisements
Track Severe Weather on mobile